Terminal Aerodrome Forecast
Issued by NWS

Home | Current Version | Previous Version | Text Only | Print | Product List | Glossary On
Versions: 1 2 3 4 5 6 7 8 9 10 11 12 13 14 15 16 17 18
000
FTUS43 KMPX 181524 AAA
TAFAXN
TAF AMD
KAXN 181524Z 1815/1912 24004KT P6SM SCT070 OVC100
     FM182000 35005KT P6SM VCTS SCT050CB BKN100
     FM190000 VRB03KT P6SM SCT120
     FM190200 23004KT P6SM SKC
     FM190700 23003KT 3SM BR SKC=

USA.gov is the U.S. government's official web portal to all federal, state and local government web resources and services.